createdAt,value
2023-05-23T00:00:02.046Z,92.71
2023-05-23T00:02:29.409Z,93.08
2023-05-23T00:04:58.714Z,93.41
2023-05-23T00:07:26.602Z,94.12
2023-05-23T00:09:53.306Z,94.49
2023-05-23T00:12:20.616Z,95.50
2023-05-23T00:14:47.930Z,95.88
2023-05-23T00:17:14.672Z,96.38
2023-05-23T00:22:18.790Z,97.28
2023-05-23T00:24:45.652Z,97.20
2023-05-23T00:27:12.318Z,97.95
2023-05-23T00:29:39.100Z,98.98
2023-05-23T00:32:05.869Z,99.10
2023-05-23T00:34:32.576Z,100.00
2023-05-23T00:37:00.031Z,99.89
2023-05-23T00:39:26.686Z,100.00
2023-05-23T00:41:53.472Z,100.00
2023-05-23T00:44:21.893Z,100.00
2023-05-23T00:46:55.541Z,100.00
2023-05-23T00:49:22.591Z,100.00
2023-05-23T00:51:52.382Z,100.00
2023-05-23T00:54:24.628Z,100.00
2023-05-23T00:56:51.591Z,100.00
2023-05-23T00:59:18.376Z,100.00
2023-05-23T01:01:47.586Z,100.00
2023-05-23T01:04:17.003Z,100.00
2023-05-23T01:06:47.315Z,100.00
2023-05-23T01:09:16.198Z,100.00
2023-05-23T01:12:36.093Z,100.00
2023-05-23T01:15:12.736Z,100.00
2023-05-23T01:20:26.204Z,100.00
2023-05-23T01:23:01.772Z,100.00
2023-05-23T01:25:43.440Z,100.00
2023-05-23T01:28:15.321Z,100.00
2023-05-23T01:30:44.958Z,100.00
2023-05-23T01:33:14.277Z,100.00
2023-05-23T01:35:43.982Z,100.00
2023-05-23T01:38:10.783Z,100.00
2023-05-23T01:40:38.438Z,100.00
2023-05-23T01:43:05.191Z,100.00
2023-05-23T01:45:32.211Z,100.00
2023-05-23T01:47:59.444Z,100.00
2023-05-23T01:50:27.076Z,100.00
2023-05-23T01:52:54.423Z,100.00
2023-05-23T01:55:26.713Z,100.00
2023-05-23T01:57:57.774Z,100.00
2023-05-23T02:03:03.124Z,100.00
2023-05-23T02:05:30.665Z,100.00
2023-05-23T02:07:57.428Z,100.00
2023-05-23T02:10:24.147Z,100.00
2023-05-23T02:12:50.879Z,100.00
2023-05-23T02:15:17.772Z,100.00
2023-05-23T02:17:44.573Z,100.00
2023-05-23T02:20:11.554Z,100.00
2023-05-23T02:22:39.124Z,100.00
2023-05-23T02:25:06.575Z,100.00
2023-05-23T02:27:33.267Z,100.00
2023-05-23T02:29:59.942Z,100.00
2023-05-23T02:32:26.670Z,100.00
2023-05-23T02:37:27.740Z,100.00
2023-05-23T02:39:54.470Z,100.00
2023-05-23T02:42:21.136Z,100.00
2023-05-23T02:44:48.119Z,100.00
2023-05-23T02:47:14.808Z,100.00
2023-05-23T02:49:41.490Z,100.00
2023-05-23T02:52:08.217Z,100.00
2023-05-23T02:54:34.905Z,100.00
2023-05-23T02:57:01.692Z,100.00
2023-05-23T02:59:28.439Z,100.00
2023-05-23T03:01:55.200Z,100.00
2023-05-23T03:04:21.956Z,100.00
2023-05-23T03:06:48.892Z,100.00
2023-05-23T03:09:19.475Z,100.00
2023-05-23T03:11:46.726Z,100.00
2023-05-23T03:14:13.667Z,100.00
2023-05-23T03:16:40.865Z,100.00
2023-05-23T03:19:07.938Z,100.00
2023-05-23T03:21:35.917Z,100.00
2023-05-23T03:24:02.793Z,100.00
2023-05-23T03:26:29.770Z,100.00
2023-05-23T03:28:56.915Z,100.00
2023-05-23T03:31:23.942Z,100.00
2023-05-23T03:33:51.063Z,100.00
2023-05-23T03:36:17.988Z,100.00
2023-05-23T03:38:44.901Z,100.00
2023-05-23T03:41:11.817Z,100.00
2023-05-23T03:43:38.671Z,100.00
2023-05-23T03:46:05.658Z,100.00
2023-05-23T03:48:32.569Z,100.00
2023-05-23T03:53:34.352Z,100.00
2023-05-23T03:56:02.130Z,100.00
2023-05-23T03:58:28.948Z,100.00
2023-05-23T04:00:55.883Z,100.00
2023-05-23T04:03:23.078Z,100.00
2023-05-23T04:05:50.406Z,100.00
2023-05-23T04:08:17.853Z,100.00
2023-05-23T04:10:44.702Z,100.00
2023-05-23T04:13:11.596Z,100.00
2023-05-23T04:18:11.256Z,100.00
2023-05-23T04:20:38.153Z,100.00
2023-05-23T04:23:04.923Z,100.00
2023-05-23T04:25:31.585Z,100.00
2023-05-23T04:27:58.282Z,100.00
2023-05-23T04:30:25.011Z,100.00
2023-05-23T04:32:52.430Z,100.00
2023-05-23T04:35:19.149Z,100.00
2023-05-23T04:37:45.807Z,100.00
2023-05-23T04:40:13.698Z,100.00
2023-05-23T04:42:42.663Z,100.00
2023-05-23T04:45:10.204Z,100.00
2023-05-23T04:47:37.713Z,100.00
2023-05-23T04:50:05.758Z,100.00
2023-05-23T04:52:34.385Z,100.00
2023-05-23T04:55:01.584Z,100.00
2023-05-23T04:57:28.672Z,100.00
2023-05-23T04:59:55.537Z,100.00
2023-05-23T05:02:22.285Z,100.00
2023-05-23T05:07:26.797Z,100.00
2023-05-23T05:09:53.476Z,100.00
2023-05-23T05:12:20.175Z,100.00
2023-05-23T05:14:46.858Z,100.00
2023-05-23T05:17:13.635Z,100.00
2023-05-23T05:19:40.478Z,100.00
2023-05-23T05:22:08.263Z,100.00
2023-05-23T05:24:34.995Z,100.00
2023-05-23T05:27:01.825Z,100.00
2023-05-23T05:29:29.051Z,100.00
2023-05-23T05:31:55.866Z,100.00
2023-05-23T05:34:23.111Z,100.00
2023-05-23T05:36:49.933Z,100.00
2023-05-23T05:39:17.166Z,100.00
2023-05-23T05:41:43.872Z,100.00
2023-05-23T05:44:10.702Z,100.00
2023-05-23T05:49:14.493Z,100.00
2023-05-23T05:51:41.141Z,100.00
2023-05-23T05:54:08.042Z,100.00
2023-05-23T05:56:34.829Z,100.00
2023-05-23T05:59:01.529Z,100.00
2023-05-23T06:01:28.217Z,100.00
2023-05-23T06:03:55.128Z,100.00
2023-05-23T06:06:22.778Z,100.00
2023-05-23T06:08:49.449Z,100.00
2023-05-23T06:11:16.204Z,100.00
2023-05-23T06:13:42.977Z,100.00
2023-05-23T06:16:09.716Z,100.00
2023-05-23T06:18:36.424Z,100.00
2023-05-23T06:21:03.200Z,100.00
2023-05-23T06:23:29.899Z,100.00
2023-05-23T06:25:56.650Z,100.00
2023-05-23T06:28:23.337Z,100.00
2023-05-23T06:30:50.051Z,100.00
2023-05-23T06:33:16.883Z,100.00
2023-05-23T06:35:43.706Z,100.00
2023-05-23T06:38:10.408Z,100.00
2023-05-23T06:40:37.163Z,100.00
2023-05-23T06:43:03.850Z,100.00
2023-05-23T06:45:30.500Z,100.00
2023-05-23T06:47:57.319Z,100.00
2023-05-23T06:52:55.280Z,99.50
2023-05-23T06:55:23.033Z,99.42
2023-05-23T06:57:52.805Z,99.27
2023-05-23T07:00:19.895Z,100.00
2023-05-23T07:02:48.915Z,99.69
2023-05-23T07:05:16.478Z,99.51
2023-05-23T07:07:43.837Z,99.13
2023-05-23T07:10:11.124Z,99.25
2023-05-23T07:12:38.005Z,98.95
2023-05-23T07:15:05.135Z,99.21
2023-05-23T07:17:31.884Z,99.13
2023-05-23T07:19:58.659Z,99.39
2023-05-23T07:22:25.366Z,100.00
2023-05-23T07:24:52.006Z,99.27
2023-05-23T07:27:18.675Z,99.90
2023-05-23T07:29:45.456Z,99.51
2023-05-23T07:32:12.126Z,99.56
2023-05-23T07:37:16.533Z,100.00
2023-05-23T07:39:43.260Z,99.86
2023-05-23T07:42:09.946Z,99.20
2023-05-23T07:44:36.864Z,98.23
2023-05-23T07:47:03.748Z,96.52
2023-05-23T07:49:30.603Z,96.46
2023-05-23T07:51:58.123Z,95.00
2023-05-23T07:54:24.948Z,93.83
2023-05-23T07:56:53.335Z,91.90
2023-05-23T07:59:20.218Z,91.63
2023-05-23T08:01:46.945Z,88.88
2023-05-23T08:04:13.843Z,87.97
2023-05-23T08:06:45.765Z,84.58
2023-05-23T08:09:18.707Z,85.10
2023-05-23T08:11:45.520Z,85.08
2023-05-23T08:14:12.183Z,84.07
2023-05-23T08:16:39.238Z,83.88
2023-05-23T08:19:06.436Z,83.18
2023-05-23T08:21:33.671Z,84.14
2023-05-23T08:24:00.472Z,83.08
2023-05-23T08:26:28.207Z,84.07
2023-05-23T08:28:54.977Z,82.68
2023-05-23T08:31:22.224Z,83.62
2023-05-23T08:33:48.951Z,82.58
2023-05-23T08:36:15.765Z,82.57
2023-05-23T08:38:42.465Z,80.71
2023-05-23T08:41:19.046Z,79.91
2023-05-23T08:43:45.898Z,80.02
2023-05-23T08:46:13.841Z,79.32
2023-05-23T08:48:43.076Z,80.24
2023-05-23T08:51:14.488Z,78.18
2023-05-23T08:53:47.250Z,78.58
2023-05-23T08:56:14.391Z,78.94
2023-05-23T08:58:44.712Z,76.31
2023-05-23T09:01:13.742Z,75.12
2023-05-23T09:03:42.736Z,73.99
2023-05-23T09:06:11.120Z,73.84
2023-05-23T09:08:38.162Z,73.54
2023-05-23T09:11:07.125Z,74.80
2023-05-23T09:13:34.392Z,77.18
2023-05-23T09:16:05.329Z,77.63
2023-05-23T09:18:37.670Z,76.73
2023-05-23T09:21:05.358Z,76.60
2023-05-23T09:23:33.208Z,76.95
2023-05-23T09:26:04.765Z,77.10
2023-05-23T09:28:35.121Z,76.77
2023-05-23T09:31:03.604Z,75.71
2023-05-23T09:33:53.135Z,75.42
2023-05-23T09:36:19.897Z,75.10
2023-05-23T09:41:25.424Z,77.09
2023-05-23T09:43:53.734Z,76.33
2023-05-23T09:49:00.528Z,75.17
2023-05-23T09:51:28.499Z,75.07
2023-05-23T09:53:57.163Z,73.77
2023-05-23T09:56:25.102Z,73.74
2023-05-23T09:58:52.400Z,73.49
2023-05-23T10:01:19.983Z,74.26
2023-05-23T10:03:51.181Z,74.16
2023-05-23T10:06:35.221Z,73.79
2023-05-23T10:09:06.278Z,75.37
2023-05-23T10:11:35.682Z,73.66
2023-05-23T10:16:42.747Z,71.90
2023-05-23T10:19:21.098Z,71.56
2023-05-23T10:21:51.578Z,70.53
2023-05-23T10:24:19.056Z,70.72
2023-05-23T10:26:46.262Z,69.98
2023-05-23T10:29:12.948Z,71.12
2023-05-23T10:31:41.049Z,70.82
2023-05-23T10:34:40.825Z,70.47
2023-05-23T10:37:08.550Z,70.76
2023-05-23T10:40:00.388Z,71.74
2023-05-23T10:42:39.768Z,72.26
2023-05-23T10:48:00.529Z,70.89
2023-05-23T10:50:33.658Z,71.23
2023-05-23T10:53:05.294Z,70.89
2023-05-23T10:55:37.107Z,70.28
2023-05-23T10:58:17.875Z,70.31
2023-05-23T11:00:54.724Z,70.87
2023-05-23T11:03:43.904Z,71.37
2023-05-23T11:06:28.363Z,71.00
2023-05-23T11:09:06.316Z,69.63
2023-05-23T11:12:06.170Z,70.98
2023-05-23T11:14:33.727Z,69.36
2023-05-23T11:17:12.565Z,69.79
2023-05-23T11:19:40.125Z,69.42
2023-05-23T11:22:10.322Z,68.39
2023-05-23T11:24:53.678Z,68.19
2023-05-23T11:27:34.965Z,68.32
2023-05-23T11:30:10.239Z,67.09
2023-05-23T11:32:37.759Z,67.61
2023-05-23T11:35:07.206Z,66.78
2023-05-23T11:37:34.813Z,67.26
2023-05-23T11:40:27.429Z,65.34
2023-05-23T11:42:54.972Z,65.81
2023-05-23T11:45:22.977Z,65.39
2023-05-23T11:47:49.898Z,64.33
2023-05-23T11:50:17.034Z,64.13
2023-05-23T11:52:43.982Z,62.54
2023-05-23T11:55:11.029Z,62.66
2023-05-23T11:57:41.478Z,64.50
2023-05-23T12:00:09.113Z,63.71
2023-05-23T12:02:40.918Z,63.48
2023-05-23T12:05:13.988Z,64.46
2023-05-23T12:07:42.278Z,63.56
2023-05-23T12:10:12.152Z,62.74
2023-05-23T12:12:39.020Z,61.36
2023-05-23T12:15:06.261Z,61.17
2023-05-23T12:17:33.459Z,59.30
2023-05-23T12:20:00.641Z,60.82
2023-05-23T12:22:28.729Z,61.17
2023-05-23T12:24:56.811Z,59.34
2023-05-23T12:27:30.666Z,59.67
2023-05-23T12:30:29.900Z,60.39
2023-05-23T12:32:56.634Z,60.82
2023-05-23T12:35:26.135Z,59.23
2023-05-23T12:37:55.075Z,57.67
2023-05-23T12:40:22.081Z,55.43
2023-05-23T12:42:53.322Z,55.55
2023-05-23T12:45:34.113Z,55.53
2023-05-23T12:48:02.425Z,54.64
2023-05-23T12:50:29.514Z,55.99
2023-05-23T12:52:56.274Z,57.86
2023-05-23T12:55:23.018Z,58.70
2023-05-23T12:57:49.772Z,58.43
2023-05-23T13:00:16.874Z,58.13
2023-05-23T13:02:43.745Z,57.96
2023-05-23T13:05:10.549Z,55.47
2023-05-23T13:07:38.118Z,55.79
2023-05-23T13:10:05.252Z,55.39
2023-05-23T13:12:33.160Z,53.87
2023-05-23T13:14:59.967Z,53.02
2023-05-23T13:17:26.751Z,54.37
2023-05-23T13:19:53.499Z,56.16
2023-05-23T13:22:20.235Z,56.66
2023-05-23T13:27:19.871Z,59.86
2023-05-23T13:29:46.564Z,60.48
2023-05-23T13:34:51.569Z,60.35
2023-05-23T13:37:18.562Z,60.39
2023-05-23T13:39:45.382Z,60.58
2023-05-23T13:42:12.146Z,59.99
2023-05-23T13:44:38.902Z,59.63
2023-05-23T13:47:15.759Z,59.21
2023-05-23T13:49:43.274Z,59.77
2023-05-23T13:52:10.033Z,59.92
2023-05-23T13:54:36.738Z,59.78
2023-05-23T13:57:03.704Z,59.90
2023-05-23T13:59:30.598Z,60.57
2023-05-23T14:01:57.502Z,60.48
2023-05-23T14:04:24.303Z,61.23
2023-05-23T14:09:24.215Z,59.14
2023-05-23T14:11:52.542Z,59.43
2023-05-23T14:14:19.329Z,59.34
2023-05-23T14:16:46.328Z,60.11
2023-05-23T14:19:13.195Z,57.90
2023-05-23T14:21:40.034Z,59.08
2023-05-23T14:24:06.796Z,60.33
2023-05-23T14:26:33.484Z,60.67
2023-05-23T14:29:00.191Z,60.97
2023-05-23T14:31:26.992Z,61.12
2023-05-23T14:33:53.774Z,58.79
2023-05-23T14:36:20.549Z,59.83
2023-05-23T14:38:47.295Z,60.07
2023-05-23T14:41:14.396Z,60.59
2023-05-23T14:43:41.293Z,60.03
2023-05-23T14:48:46.426Z,58.87
2023-05-23T14:51:21.472Z,58.62
2023-05-23T14:53:53.968Z,57.10
2023-05-23T14:56:20.890Z,55.80
2023-05-23T14:58:47.761Z,56.22
2023-05-23T15:01:14.696Z,56.15
2023-05-23T15:03:41.700Z,55.40
2023-05-23T15:06:08.911Z,54.62
2023-05-23T15:08:36.010Z,54.58
2023-05-23T15:11:02.890Z,55.86
2023-05-23T15:16:01.744Z,55.32
2023-05-23T15:18:39.869Z,55.40
2023-05-23T15:21:08.117Z,55.31
2023-05-23T15:23:34.838Z,54.91
2023-05-23T15:26:01.597Z,54.05
2023-05-23T15:28:28.308Z,54.89
2023-05-23T15:30:57.262Z,55.13
2023-05-23T15:33:24.084Z,55.53
2023-05-23T15:35:51.439Z,56.34
2023-05-23T15:38:20.065Z,57.04
2023-05-23T15:40:49.076Z,57.93
2023-05-23T15:43:15.909Z,58.52
2023-05-23T15:45:42.769Z,58.85
2023-05-23T15:50:42.086Z,57.42
2023-05-23T15:53:09.161Z,56.65
2023-05-23T15:55:37.187Z,56.55
2023-05-23T15:58:05.308Z,56.03
2023-05-23T16:00:32.124Z,56.17
2023-05-23T16:02:59.035Z,55.81
2023-05-23T16:05:26.162Z,56.32
2023-05-23T16:07:52.859Z,56.63
2023-05-23T16:10:20.104Z,57.95
2023-05-23T16:12:46.788Z,57.55
2023-05-23T16:15:13.455Z,57.81
2023-05-23T16:17:40.122Z,58.31
2023-05-23T16:20:07.979Z,58.32
2023-05-23T16:22:34.712Z,58.41
2023-05-23T16:27:33.216Z,58.67
2023-05-23T16:29:59.913Z,59.16
2023-05-23T16:32:28.308Z,60.67
2023-05-23T16:34:55.060Z,60.33
2023-05-23T16:37:21.765Z,60.15
2023-05-23T16:39:48.464Z,59.46
2023-05-23T16:42:15.255Z,60.34
2023-05-23T16:47:13.306Z,62.59
2023-05-23T16:49:39.990Z,63.06
2023-05-23T16:52:06.803Z,64.03
2023-05-23T16:54:33.579Z,64.74
2023-05-23T16:57:02.183Z,64.80
2023-05-23T16:59:30.130Z,64.94
2023-05-23T17:01:57.205Z,65.62
2023-05-23T17:04:24.260Z,65.40
2023-05-23T17:06:51.258Z,65.10
2023-05-23T17:09:18.391Z,65.37
2023-05-23T17:11:45.319Z,64.45
2023-05-23T17:14:12.094Z,64.81
2023-05-23T17:16:39.021Z,65.67
2023-05-23T17:19:05.891Z,66.17
2023-05-23T17:21:33.104Z,66.71
2023-05-23T17:23:59.950Z,67.07
2023-05-23T17:26:27.597Z,66.60
2023-05-23T17:28:54.345Z,67.66
2023-05-23T17:31:21.651Z,67.58
2023-05-23T17:33:48.384Z,68.09
2023-05-23T17:38:54.007Z,67.46
2023-05-23T17:41:23.529Z,67.03
2023-05-23T17:43:50.911Z,67.30
2023-05-23T17:46:17.671Z,67.99
2023-05-23T17:48:46.963Z,69.11
2023-05-23T17:51:15.483Z,69.06
2023-05-23T17:53:42.625Z,69.34
2023-05-23T17:56:09.669Z,69.53
2023-05-23T17:58:41.697Z,69.05
2023-05-23T18:01:11.861Z,69.66
2023-05-23T18:03:39.728Z,70.58
2023-05-23T18:06:07.104Z,70.70
2023-05-23T18:08:34.152Z,70.47
2023-05-23T18:11:00.884Z,69.32
2023-05-23T18:13:27.601Z,68.82
2023-05-23T18:15:54.262Z,68.88
2023-05-23T18:18:21.265Z,69.17
2023-05-23T18:20:58.780Z,70.40
2023-05-23T18:23:25.791Z,70.67
2023-05-23T18:25:52.967Z,70.51
2023-05-23T18:28:19.797Z,69.87
2023-05-23T18:30:46.489Z,70.60
2023-05-23T18:33:13.306Z,70.83
2023-05-23T18:35:40.447Z,71.25
2023-05-23T18:38:07.590Z,71.14
2023-05-23T18:40:34.363Z,70.76
2023-05-23T18:43:01.127Z,70.92
2023-05-23T18:45:27.916Z,71.68
2023-05-23T18:47:55.135Z,71.39
2023-05-23T18:50:21.865Z,71.57
2023-05-23T18:52:48.579Z,71.36
2023-05-23T18:55:16.585Z,71.89
2023-05-23T18:57:43.292Z,72.28
2023-05-23T19:02:48.934Z,72.34
2023-05-23T19:05:15.913Z,72.05
2023-05-23T19:07:42.589Z,71.59
2023-05-23T19:10:09.736Z,71.95
2023-05-23T19:12:36.568Z,71.42
2023-05-23T19:15:03.805Z,70.85
2023-05-23T19:17:31.221Z,71.37
2023-05-23T19:19:58.071Z,71.85
2023-05-23T19:22:25.642Z,72.08
2023-05-23T19:24:54.438Z,72.28
2023-05-23T19:27:21.197Z,72.85
2023-05-23T19:29:47.899Z,73.01
2023-05-23T19:32:14.670Z,73.40
2023-05-23T19:34:41.764Z,73.07
2023-05-23T19:37:08.433Z,72.90
2023-05-23T19:39:35.182Z,73.49
2023-05-23T19:42:01.860Z,74.11
2023-05-23T19:44:28.632Z,74.52
2023-05-23T19:46:55.345Z,74.64
2023-05-23T19:49:22.036Z,74.80
2023-05-23T19:51:49.036Z,74.87
2023-05-23T19:54:15.781Z,74.63
2023-05-23T19:56:42.635Z,74.94
2023-05-23T19:59:09.374Z,75.10
2023-05-23T20:01:36.113Z,74.83
2023-05-23T20:04:02.984Z,74.98
2023-05-23T20:06:29.768Z,74.85
2023-05-23T20:08:56.478Z,75.39
2023-05-23T20:13:56.984Z,74.49
2023-05-23T20:16:23.780Z,74.87
2023-05-23T20:18:50.677Z,75.07
2023-05-23T20:21:17.503Z,74.82
2023-05-23T20:23:45.284Z,74.98
2023-05-23T20:26:12.255Z,75.14
2023-05-23T20:28:38.938Z,74.66
2023-05-23T20:31:05.839Z,74.46
2023-05-23T20:33:34.550Z,74.63
2023-05-23T20:36:01.862Z,74.86
2023-05-23T20:38:29.209Z,75.41
2023-05-23T20:40:55.928Z,75.95
2023-05-23T20:43:22.812Z,75.65
2023-05-23T20:45:49.562Z,75.58
2023-05-23T20:48:16.486Z,74.78
2023-05-23T20:50:44.359Z,75.48
2023-05-23T20:53:11.335Z,75.63
2023-05-23T20:55:38.327Z,75.69
2023-05-23T20:58:05.077Z,75.71
2023-05-23T21:00:31.791Z,75.80
2023-05-23T21:02:58.669Z,74.70
2023-05-23T21:05:25.588Z,74.39
2023-05-23T21:07:52.300Z,74.75
2023-05-23T21:10:19.104Z,74.95
2023-05-23T21:12:50.341Z,75.41
2023-05-23T21:15:17.655Z,75.72
2023-05-23T21:17:44.821Z,76.48
2023-05-23T21:20:12.404Z,77.12
2023-05-23T21:22:39.531Z,77.25
2023-05-23T21:25:06.628Z,77.20
2023-05-23T21:27:33.399Z,77.42
2023-05-23T21:30:00.092Z,77.90
2023-05-23T21:32:26.998Z,77.90
2023-05-23T21:34:53.694Z,77.51
2023-05-23T21:37:20.567Z,78.10
2023-05-23T21:39:51.876Z,77.10
2023-05-23T21:42:19.795Z,77.71
2023-05-23T21:44:46.553Z,77.78
2023-05-23T21:47:13.542Z,77.96
2023-05-23T21:49:40.701Z,77.61
2023-05-23T21:52:07.374Z,77.76
2023-05-23T21:54:34.246Z,78.17
2023-05-23T21:57:00.952Z,78.52
2023-05-23T21:59:27.695Z,77.68
2023-05-23T22:01:54.720Z,78.56
2023-05-23T22:04:21.723Z,78.90
2023-05-23T22:09:19.804Z,78.69
2023-05-23T22:11:46.624Z,78.57
2023-05-23T22:14:13.359Z,78.21
2023-05-23T22:16:40.239Z,77.40
2023-05-23T22:19:09.879Z,77.85
2023-05-23T22:21:37.102Z,78.11
2023-05-23T22:24:04.171Z,78.05
2023-05-23T22:26:31.227Z,78.08
2023-05-23T22:28:57.979Z,78.78
2023-05-23T22:31:24.843Z,78.92
2023-05-23T22:33:51.683Z,78.86
2023-05-23T22:36:18.677Z,78.49
2023-05-23T22:38:45.864Z,78.89
2023-05-23T22:41:12.768Z,79.24
2023-05-23T22:43:39.814Z,78.46
2023-05-23T22:46:07.090Z,78.99
2023-05-23T22:48:34.377Z,79.05
2023-05-23T22:51:04.118Z,79.48
2023-05-23T22:56:04.438Z,79.67
2023-05-23T22:58:31.515Z,79.25
2023-05-23T23:00:58.303Z,79.46
2023-05-23T23:03:25.006Z,78.62
2023-05-23T23:05:51.754Z,79.10
2023-05-23T23:08:19.579Z,79.21
2023-05-23T23:10:46.483Z,80.37
2023-05-23T23:13:14.318Z,80.55
2023-05-23T23:15:42.974Z,80.21
2023-05-23T23:18:10.082Z,81.01
2023-05-23T23:20:37.035Z,80.98
2023-05-23T23:23:03.905Z,80.27
2023-05-23T23:25:30.645Z,80.27
2023-05-23T23:27:57.372Z,80.33
2023-05-23T23:33:01.931Z,77.29
2023-05-23T23:35:28.800Z,76.48
2023-05-23T23:37:55.505Z,73.58
2023-05-23T23:40:22.229Z,70.88
2023-05-23T23:42:48.921Z,70.61
2023-05-23T23:45:15.821Z,71.78
2023-05-23T23:47:43.091Z,72.42
2023-05-23T23:50:09.975Z,72.79
2023-05-23T23:52:39.274Z,73.00
2023-05-23T23:55:06.726Z,72.83
2023-05-23T23:57:33.705Z,71.62
